createdAt,value
2022-10-07T00:00:47.641Z,55.06
2022-10-07T00:03:15.652Z,55.02
2022-10-07T00:05:42.501Z,55.02
2022-10-07T00:08:09.514Z,55.17
2022-10-07T00:10:41.103Z,55.12
2022-10-07T00:13:10.078Z,55.00
2022-10-07T00:15:36.903Z,54.96
2022-10-07T00:18:03.993Z,54.66
2022-10-07T00:20:30.879Z,54.41
2022-10-07T00:22:57.651Z,53.85
2022-10-07T00:25:24.456Z,54.20
2022-10-07T00:27:51.218Z,54.15
2022-10-07T00:30:18.160Z,54.48
2022-10-07T00:32:44.893Z,53.88
2022-10-07T00:35:11.664Z,54.00
2022-10-07T00:37:43.453Z,53.86
2022-10-07T00:40:12.894Z,53.64
2022-10-07T00:42:40.717Z,53.85
2022-10-07T00:45:19.528Z,54.15
2022-10-07T00:47:49.298Z,54.35
2022-10-07T00:50:28.080Z,54.48
2022-10-07T00:52:59.846Z,54.54
2022-10-07T00:55:29.571Z,54.28
2022-10-07T00:58:01.569Z,54.21
2022-10-07T01:00:28.566Z,54.06
2022-10-07T01:02:55.402Z,54.33
2022-10-07T01:05:22.242Z,54.15
2022-10-07T01:07:50.844Z,54.46
2022-10-07T01:10:22.032Z,54.29
2022-10-07T01:13:14.809Z,54.64
2022-10-07T01:16:06.247Z,54.42
2022-10-07T01:18:57.961Z,54.49
2022-10-07T01:21:41.765Z,54.67
2022-10-07T01:24:36.509Z,54.74
2022-10-07T01:27:12.097Z,54.71
2022-10-07T01:29:56.211Z,54.88
2022-10-07T01:32:48.330Z,54.85
2022-10-07T01:35:24.779Z,55.04
2022-10-07T01:37:57.358Z,55.12
2022-10-07T01:40:33.421Z,55.19
2022-10-07T01:43:01.404Z,55.24
2022-10-07T01:45:31.151Z,55.57
2022-10-07T01:48:04.390Z,55.52
2022-10-07T01:50:35.075Z,55.75
2022-10-07T01:53:32.324Z,56.25
2022-10-07T01:56:21.217Z,57.44
2022-10-07T01:59:15.380Z,57.79
2022-10-07T02:02:24.464Z,58.43
2022-10-07T02:05:15.454Z,58.44
2022-10-07T02:08:15.195Z,58.44
2022-10-07T02:10:48.458Z,59.18
2022-10-07T02:13:28.869Z,59.27
2022-10-07T02:16:19.924Z,59.26
2022-10-07T02:18:50.610Z,59.43
2022-10-07T02:21:25.509Z,59.48
2022-10-07T02:23:54.873Z,59.69
2022-10-07T02:26:23.271Z,59.77
2022-10-07T02:28:53.542Z,60.01
2022-10-07T02:31:27.785Z,60.24
2022-10-07T02:33:57.445Z,60.08
2022-10-07T02:36:34.466Z,60.05
2022-10-07T02:39:01.753Z,60.25
2022-10-07T02:41:35.622Z,60.29
2022-10-07T02:44:05.446Z,60.59
2022-10-07T02:46:38.962Z,60.64
2022-10-07T02:49:13.698Z,60.75
2022-10-07T02:51:48.381Z,60.76
2022-10-07T02:54:20.094Z,61.07
2022-10-07T02:56:47.617Z,60.86
2022-10-07T02:59:15.902Z,60.95
2022-10-07T03:01:47.982Z,60.71
2022-10-07T03:04:14.893Z,60.71
2022-10-07T03:06:43.058Z,60.51
2022-10-07T03:09:10.404Z,60.59
2022-10-07T03:11:39.035Z,60.52
2022-10-07T03:14:06.301Z,60.32
2022-10-07T03:16:33.324Z,60.36
2022-10-07T03:19:00.175Z,60.30
2022-10-07T03:21:27.166Z,60.25
2022-10-07T03:23:54.873Z,60.39
2022-10-07T03:26:21.671Z,60.45
2022-10-07T03:28:49.081Z,60.88
2022-10-07T03:31:15.962Z,60.73
2022-10-07T03:33:43.379Z,60.54
2022-10-07T03:36:10.470Z,60.56
2022-10-07T03:38:37.248Z,60.57
2022-10-07T03:41:06.984Z,60.55
2022-10-07T03:43:34.324Z,60.80
2022-10-07T03:46:02.676Z,60.84
2022-10-07T03:48:30.719Z,60.17
2022-10-07T03:51:00.413Z,59.85
2022-10-07T03:53:29.817Z,60.20
2022-10-07T03:55:56.565Z,59.88
2022-10-07T03:58:23.480Z,59.47
2022-10-07T04:00:50.292Z,59.02
2022-10-07T04:03:18.843Z,59.18
2022-10-07T04:05:58.441Z,59.18
2022-10-07T04:08:28.142Z,58.83
2022-10-07T04:10:55.288Z,58.98
2022-10-07T04:13:22.167Z,59.07
2022-10-07T04:15:49.396Z,59.25
2022-10-07T04:18:16.319Z,59.08
2022-10-07T04:20:43.316Z,59.13
2022-10-07T04:23:10.092Z,59.35
2022-10-07T04:25:38.676Z,59.68
2022-10-07T04:28:08.216Z,59.75
2022-10-07T04:30:40.385Z,60.12
2022-10-07T04:33:08.321Z,60.09
2022-10-07T04:35:41.169Z,60.18
2022-10-07T04:38:12.308Z,60.67
2022-10-07T04:40:41.266Z,60.77
2022-10-07T04:43:19.816Z,61.13
2022-10-07T04:45:48.299Z,61.53
2022-10-07T04:48:18.418Z,61.49
2022-10-07T04:50:45.721Z,61.56
2022-10-07T04:53:14.869Z,61.54
2022-10-07T04:55:44.189Z,61.82
2022-10-07T04:58:11.100Z,61.70
2022-10-07T05:00:45.862Z,62.10
2022-10-07T05:03:14.152Z,62.88
2022-10-07T05:05:43.336Z,62.96
2022-10-07T05:08:11.005Z,63.48
2022-10-07T05:10:40.032Z,63.69
2022-10-07T05:13:09.592Z,63.25
2022-10-07T05:15:36.339Z,63.78
2022-10-07T05:18:03.510Z,63.45
2022-10-07T05:20:30.235Z,63.27
2022-10-07T05:22:56.912Z,63.11
2022-10-07T05:25:23.755Z,63.37
2022-10-07T05:27:54.027Z,63.55
2022-10-07T05:30:21.202Z,63.85
2022-10-07T05:32:48.060Z,63.63
2022-10-07T05:35:15.015Z,63.49
2022-10-07T05:37:47.492Z,63.28
2022-10-07T05:40:15.637Z,63.32
2022-10-07T05:42:43.000Z,63.30
2022-10-07T05:45:10.229Z,63.23
2022-10-07T05:47:37.080Z,63.30
2022-10-07T05:50:04.064Z,63.03
2022-10-07T05:52:30.830Z,63.25
2022-10-07T05:54:57.984Z,63.50
2022-10-07T05:57:24.907Z,63.17
2022-10-07T05:59:51.837Z,63.25
2022-10-07T06:02:19.696Z,63.53
2022-10-07T06:04:47.510Z,63.76
2022-10-07T06:07:19.564Z,63.56
2022-10-07T06:10:06.584Z,63.36
2022-10-07T06:12:52.000Z,63.50
2022-10-07T06:15:19.078Z,63.44
2022-10-07T06:17:46.555Z,62.83
2022-10-07T06:20:14.442Z,62.10
2022-10-07T06:22:43.207Z,61.69
2022-10-07T06:25:10.084Z,62.04
2022-10-07T06:27:36.898Z,62.38
2022-10-07T06:30:04.195Z,62.44
2022-10-07T06:32:32.720Z,62.16
2022-10-07T06:34:59.485Z,62.05
2022-10-07T06:37:26.349Z,62.11
2022-10-07T06:39:57.399Z,62.29
2022-10-07T06:42:26.211Z,62.25
2022-10-07T06:44:54.056Z,62.16
2022-10-07T06:47:22.065Z,62.38
2022-10-07T06:49:49.081Z,62.32
2022-10-07T06:52:15.906Z,62.77
2022-10-07T06:54:42.893Z,62.94
2022-10-07T06:57:33.085Z,62.94
2022-10-07T06:59:56.719Z,63.13
2022-10-07T07:02:25.944Z,63.42
2022-10-07T07:04:57.438Z,63.71
2022-10-07T07:07:25.026Z,63.78
2022-10-07T07:09:52.331Z,63.64
2022-10-07T07:12:19.072Z,63.85
2022-10-07T07:14:45.969Z,63.77
2022-10-07T07:17:12.844Z,63.97
2022-10-07T07:19:39.640Z,63.42
2022-10-07T07:22:07.044Z,63.43
2022-10-07T07:24:33.817Z,63.39
2022-10-07T07:27:00.888Z,62.99
2022-10-07T07:29:27.704Z,62.49
2022-10-07T07:31:54.545Z,61.68
2022-10-07T07:34:21.316Z,61.40
2022-10-07T07:36:51.377Z,61.20
2022-10-07T07:39:19.253Z,60.91
2022-10-07T07:41:47.939Z,60.67
2022-10-07T07:44:17.589Z,60.44
2022-10-07T07:46:48.716Z,60.17
2022-10-07T07:49:16.016Z,59.96
2022-10-07T07:51:43.340Z,59.52
2022-10-07T07:54:11.822Z,59.24
2022-10-07T07:56:38.695Z,58.94
2022-10-07T07:59:06.008Z,58.73
2022-10-07T08:01:33.042Z,58.24
2022-10-07T08:04:01.072Z,57.98
2022-10-07T08:06:28.458Z,57.56
2022-10-07T08:08:59.655Z,57.36
2022-10-07T08:11:27.634Z,56.71
2022-10-07T08:13:55.889Z,56.43
2022-10-07T08:16:25.118Z,55.70
2022-10-07T08:18:53.308Z,55.45
2022-10-07T08:21:22.199Z,54.83
2022-10-07T08:23:57.620Z,54.66
2022-10-07T08:26:25.984Z,53.85
2022-10-07T08:28:53.048Z,53.36
2022-10-07T08:31:20.241Z,52.93
2022-10-07T08:33:49.045Z,52.83
2022-10-07T08:36:18.589Z,52.35
2022-10-07T08:38:49.281Z,52.57
2022-10-07T08:41:39.884Z,51.49
2022-10-07T08:44:18.567Z,51.37
2022-10-07T08:47:15.668Z,51.42
2022-10-07T08:49:57.034Z,50.87
2022-10-07T08:52:46.829Z,50.22
2022-10-07T08:55:56.991Z,49.93
2022-10-07T08:58:32.638Z,48.50
2022-10-07T09:01:17.921Z,48.60
2022-10-07T09:04:05.421Z,47.97
2022-10-07T09:06:56.996Z,47.52
2022-10-07T09:09:28.566Z,47.20
2022-10-07T09:11:57.991Z,46.60
2022-10-07T09:14:38.670Z,46.07
2022-10-07T09:17:14.367Z,46.37
2022-10-07T09:19:58.297Z,46.41
2022-10-07T09:22:42.663Z,46.05
2022-10-07T09:25:12.897Z,45.65
2022-10-07T09:27:40.039Z,44.53
2022-10-07T09:30:07.592Z,43.70
2022-10-07T09:32:40.321Z,42.77
2022-10-07T09:35:11.989Z,42.49
2022-10-07T09:37:55.987Z,42.15
2022-10-07T09:41:09.739Z,42.31
2022-10-07T09:43:36.985Z,42.07
2022-10-07T09:46:03.873Z,41.45
2022-10-07T09:48:34.468Z,40.52
2022-10-07T09:51:18.798Z,40.20
2022-10-07T09:54:03.088Z,40.35
2022-10-07T09:56:38.134Z,40.41
2022-10-07T09:59:20.190Z,39.48
2022-10-07T10:02:16.161Z,39.60
2022-10-07T10:04:54.406Z,38.65
2022-10-07T10:07:28.813Z,38.41
2022-10-07T10:09:57.840Z,38.21
2022-10-07T10:12:26.096Z,38.13
2022-10-07T10:14:53.120Z,37.94
2022-10-07T10:17:38.200Z,38.03
2022-10-07T10:20:30.768Z,37.52
2022-10-07T10:23:02.058Z,36.87
2022-10-07T10:26:33.327Z,36.88
2022-10-07T10:29:19.419Z,36.39
2022-10-07T10:31:55.175Z,35.65
2022-10-07T10:34:50.177Z,35.26
2022-10-07T10:37:20.649Z,34.45
2022-10-07T10:39:59.568Z,34.13
2022-10-07T10:42:49.595Z,35.88
2022-10-07T10:45:25.965Z,34.28
2022-10-07T10:48:17.465Z,34.25
2022-10-07T10:51:14.886Z,33.97
2022-10-07T10:53:56.938Z,33.92
2022-10-07T10:56:27.182Z,33.83
2022-10-07T10:59:03.512Z,32.85
2022-10-07T11:01:36.696Z,33.20
2022-10-07T11:04:22.322Z,32.70
2022-10-07T11:06:55.966Z,32.34
2022-10-07T11:09:49.472Z,32.51
2022-10-07T11:12:25.058Z,31.05
2022-10-07T11:14:59.118Z,30.98
2022-10-07T11:17:31.795Z,30.23
2022-10-07T11:20:25.689Z,30.60
2022-10-07T11:22:58.644Z,29.89
2022-10-07T11:25:36.661Z,29.76
2022-10-07T11:28:19.547Z,29.67
2022-10-07T11:31:11.355Z,29.64
2022-10-07T11:34:07.321Z,29.58
2022-10-07T11:36:53.054Z,29.31
2022-10-07T11:39:21.314Z,28.82
2022-10-07T11:41:55.541Z,27.89
2022-10-07T11:44:31.009Z,28.07
2022-10-07T11:47:03.222Z,27.53
2022-10-07T11:49:41.871Z,26.98
2022-10-07T11:52:24.916Z,27.20
2022-10-07T11:54:59.620Z,26.91
2022-10-07T11:57:31.595Z,26.19
2022-10-07T12:00:02.903Z,25.69
2022-10-07T12:02:29.685Z,25.94
2022-10-07T12:04:58.221Z,25.35
2022-10-07T12:07:56.665Z,25.35
2022-10-07T12:10:34.411Z,24.71
2022-10-07T12:13:21.304Z,24.36
2022-10-07T12:15:50.191Z,23.89
2022-10-07T12:18:19.433Z,23.83
2022-10-07T12:20:53.169Z,23.43
2022-10-07T12:23:19.806Z,22.99
2022-10-07T12:25:47.862Z,22.57
2022-10-07T12:28:47.491Z,22.75
2022-10-07T12:31:20.766Z,22.47
2022-10-07T12:33:47.858Z,22.20
2022-10-07T12:36:26.452Z,22.08
2022-10-07T12:38:56.539Z,22.01
2022-10-07T12:41:36.423Z,22.29
2022-10-07T12:44:08.665Z,22.35
2022-10-07T12:46:35.403Z,22.31
2022-10-07T12:49:07.103Z,22.15
2022-10-07T12:51:39.627Z,21.75
2022-10-07T12:54:32.290Z,21.16
2022-10-07T12:57:00.784Z,20.63
2022-10-07T12:59:48.629Z,21.69
2022-10-07T13:02:50.388Z,21.07
2022-10-07T13:05:32.342Z,20.07
2022-10-07T13:08:17.424Z,21.04
2022-10-07T13:11:03.889Z,22.84
2022-10-07T13:13:37.191Z,23.79
2022-10-07T13:16:24.517Z,24.54
2022-10-07T13:19:18.972Z,26.70
2022-10-07T13:22:03.465Z,27.92
2022-10-07T13:24:30.732Z,29.08
2022-10-07T13:26:57.745Z,30.10
2022-10-07T13:29:35.995Z,30.89
2022-10-07T13:32:16.255Z,31.60
2022-10-07T13:34:45.013Z,32.13
2022-10-07T13:37:28.473Z,32.84
2022-10-07T13:39:57.583Z,33.55
2022-10-07T13:42:30.145Z,34.84
2022-10-07T13:45:02.687Z,35.27
2022-10-07T13:47:34.120Z,35.74
2022-10-07T13:50:02.625Z,35.92
2022-10-07T13:52:39.910Z,36.68
2022-10-07T13:55:29.229Z,36.77
2022-10-07T13:57:57.350Z,36.36
2022-10-07T14:00:28.701Z,37.47
2022-10-07T14:02:56.032Z,37.86
2022-10-07T14:05:28.581Z,37.88
2022-10-07T14:07:58.382Z,38.59
2022-10-07T14:10:28.284Z,38.95
2022-10-07T14:13:07.420Z,39.33
2022-10-07T14:15:36.491Z,39.71
2022-10-07T14:18:08.144Z,39.79
2022-10-07T14:20:45.435Z,40.23
2022-10-07T14:23:31.372Z,40.34
2022-10-07T14:26:00.837Z,40.77
2022-10-07T14:28:33.165Z,41.10
2022-10-07T14:31:39.148Z,41.09
2022-10-07T14:34:39.539Z,41.63
2022-10-07T14:37:10.338Z,41.83
2022-10-07T14:39:48.053Z,41.85
2022-10-07T14:42:20.003Z,42.76
2022-10-07T14:44:47.657Z,43.05
2022-10-07T14:47:19.241Z,43.00
2022-10-07T14:49:45.944Z,43.60
2022-10-07T14:52:20.181Z,44.00
2022-10-07T14:54:47.942Z,44.28
2022-10-07T14:57:14.683Z,44.36
2022-10-07T14:59:41.613Z,44.49
2022-10-07T15:02:11.013Z,44.70
2022-10-07T15:04:37.780Z,45.09
2022-10-07T15:07:04.599Z,45.72
2022-10-07T15:09:31.279Z,45.65
2022-10-07T15:11:58.064Z,46.39
2022-10-07T15:14:24.896Z,46.10
2022-10-07T15:16:51.822Z,46.38
2022-10-07T15:19:19.311Z,46.54
2022-10-07T15:21:46.197Z,46.85
2022-10-07T15:24:13.102Z,47.21
2022-10-07T15:26:39.773Z,46.92
2022-10-07T15:29:08.221Z,47.19
2022-10-07T15:31:35.338Z,47.79
2022-10-07T15:34:02.119Z,47.58
2022-10-07T15:36:30.011Z,47.87
2022-10-07T15:39:02.047Z,47.91
2022-10-07T15:41:36.316Z,47.93
2022-10-07T15:44:05.969Z,48.41
2022-10-07T15:46:32.616Z,47.77
2022-10-07T15:49:00.090Z,48.47
2022-10-07T15:51:27.778Z,48.35
2022-10-07T15:53:54.663Z,48.96
2022-10-07T15:56:21.815Z,48.34
2022-10-07T15:58:48.555Z,48.56
2022-10-07T16:01:15.657Z,49.19
2022-10-07T16:03:44.333Z,49.25
2022-10-07T16:06:16.174Z,48.95
2022-10-07T16:08:43.527Z,49.35
2022-10-07T16:11:12.625Z,49.69
2022-10-07T16:13:41.817Z,49.55
2022-10-07T16:16:14.867Z,49.80
2022-10-07T16:18:44.086Z,49.72
2022-10-07T16:21:15.811Z,49.66
2022-10-07T16:23:47.854Z,49.58
2022-10-07T16:26:24.577Z,49.48
2022-10-07T16:29:12.018Z,49.82
2022-10-07T16:31:41.489Z,49.98
2022-10-07T16:34:09.468Z,50.02
2022-10-07T16:36:36.823Z,49.59
2022-10-07T16:39:08.794Z,50.05
2022-10-07T16:41:36.856Z,50.48
2022-10-07T16:44:05.145Z,50.54
2022-10-07T16:46:32.754Z,50.54
2022-10-07T16:49:00.488Z,50.86
2022-10-07T16:51:35.729Z,50.52
2022-10-07T16:54:05.517Z,50.73
2022-10-07T16:56:36.258Z,50.53
2022-10-07T16:59:05.658Z,50.63
2022-10-07T17:01:32.958Z,51.16
2022-10-07T17:04:01.570Z,51.07
2022-10-07T17:06:33.507Z,51.01
2022-10-07T17:09:04.443Z,51.73
2022-10-07T17:11:36.439Z,51.45
2022-10-07T17:14:11.556Z,51.92
2022-10-07T17:16:44.793Z,52.20
2022-10-07T17:19:20.838Z,51.83
2022-10-07T17:21:49.274Z,52.07
2022-10-07T17:24:17.793Z,52.57
2022-10-07T17:26:45.766Z,52.49
2022-10-07T17:29:14.544Z,52.89
2022-10-07T17:31:43.540Z,53.04
2022-10-07T17:34:11.906Z,52.85
2022-10-07T17:36:39.740Z,52.94
2022-10-07T17:39:06.742Z,53.53
2022-10-07T17:41:35.872Z,53.41
2022-10-07T17:44:05.860Z,53.86
2022-10-07T17:46:33.358Z,53.82
2022-10-07T17:49:02.190Z,54.17
2022-10-07T17:51:31.609Z,54.33
2022-10-07T17:54:00.001Z,54.46
2022-10-07T17:56:28.952Z,54.36
2022-10-07T17:58:56.971Z,55.25
2022-10-07T18:01:34.166Z,54.97
2022-10-07T18:04:10.098Z,55.43
2022-10-07T18:06:39.207Z,55.44
2022-10-07T18:09:07.910Z,55.25
2022-10-07T18:11:53.863Z,55.69
2022-10-07T18:14:39.786Z,55.54
2022-10-07T18:17:09.076Z,55.85
2022-10-07T18:19:36.131Z,55.70
2022-10-07T18:22:05.945Z,55.74
2022-10-07T18:24:32.769Z,55.25
2022-10-07T18:27:01.055Z,55.50
2022-10-07T18:29:33.408Z,55.89
2022-10-07T18:32:00.898Z,56.32
2022-10-07T18:34:28.087Z,56.35
2022-10-07T18:36:56.874Z,56.55
2022-10-07T18:39:25.154Z,56.93
2022-10-07T18:41:51.916Z,57.11
2022-10-07T18:44:18.752Z,57.33
2022-10-07T18:46:45.728Z,57.44
2022-10-07T18:49:15.213Z,57.23
2022-10-07T18:51:42.140Z,57.62
2022-10-07T18:54:09.898Z,57.44
2022-10-07T18:56:40.864Z,57.51
2022-10-07T18:59:09.850Z,57.57
2022-10-07T19:01:37.677Z,57.85
2022-10-07T19:04:06.019Z,57.71
2022-10-07T19:06:36.259Z,57.91
2022-10-07T19:09:06.086Z,57.89
2022-10-07T19:11:32.679Z,57.31
2022-10-07T19:13:59.997Z,57.47
2022-10-07T19:16:37.080Z,58.01
2022-10-07T19:19:07.942Z,57.81
2022-10-07T19:21:35.691Z,58.23
2022-10-07T19:24:03.755Z,58.11
2022-10-07T19:26:36.665Z,58.41
2022-10-07T19:29:04.979Z,58.52
2022-10-07T19:31:35.433Z,58.47
2022-10-07T19:34:08.965Z,58.64
2022-10-07T19:36:38.032Z,58.42
2022-10-07T19:39:04.831Z,58.48
2022-10-07T19:41:33.665Z,58.34
2022-10-07T19:44:01.700Z,58.61
2022-10-07T19:46:30.628Z,58.41
2022-10-07T19:48:59.918Z,58.40
2022-10-07T19:51:30.455Z,58.50
2022-10-07T19:53:58.475Z,58.58
2022-10-07T19:56:28.514Z,58.62
2022-10-07T19:59:00.512Z,58.58
2022-10-07T20:01:32.009Z,58.91
2022-10-07T20:04:01.505Z,59.02
2022-10-07T20:06:28.829Z,58.91
2022-10-07T20:08:57.484Z,59.03
2022-10-07T20:11:25.505Z,58.95
2022-10-07T20:13:54.388Z,59.27
2022-10-07T20:16:24.601Z,59.24
2022-10-07T20:19:08.165Z,59.52
2022-10-07T20:21:37.165Z,59.52
2022-10-07T20:24:05.349Z,59.60
2022-10-07T20:26:35.143Z,59.69
2022-10-07T20:29:04.010Z,59.71
2022-10-07T20:31:35.143Z,59.80
2022-10-07T20:34:02.906Z,59.93
2022-10-07T20:36:35.415Z,60.05
2022-10-07T20:39:23.910Z,60.06
2022-10-07T20:42:11.194Z,60.05
2022-10-07T20:44:39.148Z,60.17
2022-10-07T20:47:08.203Z,60.34
2022-10-07T20:49:37.492Z,60.13
2022-10-07T20:52:17.074Z,60.07
2022-10-07T20:54:45.722Z,60.15
2022-10-07T20:57:17.568Z,60.33
2022-10-07T20:59:44.839Z,60.49
2022-10-07T21:02:13.870Z,61.29
2022-10-07T21:04:40.837Z,61.39
2022-10-07T21:07:08.485Z,61.60
2022-10-07T21:09:39.982Z,62.23
2022-10-07T21:12:13.905Z,62.49
2022-10-07T21:14:43.188Z,62.62
2022-10-07T21:17:11.184Z,62.67
2022-10-07T21:19:38.009Z,62.82
2022-10-07T21:22:06.306Z,63.08
2022-10-07T21:24:34.602Z,63.32
2022-10-07T21:27:06.357Z,63.41
2022-10-07T21:29:37.425Z,63.30
2022-10-07T21:32:07.599Z,63.32
2022-10-07T21:34:34.502Z,63.55
2022-10-07T21:37:01.237Z,63.36
2022-10-07T21:39:28.016Z,62.60
2022-10-07T21:41:54.942Z,62.22
2022-10-07T21:44:21.691Z,62.01
2022-10-07T21:46:48.565Z,61.91
2022-10-07T21:49:16.008Z,61.72
2022-10-07T21:51:43.567Z,61.39
2022-10-07T21:54:14.366Z,61.51
2022-10-07T21:56:43.622Z,61.66
2022-10-07T21:59:10.527Z,61.38
2022-10-07T22:01:38.273Z,61.49
2022-10-07T22:04:05.277Z,61.46
2022-10-07T22:06:51.014Z,61.34
2022-10-07T22:09:21.073Z,61.64
2022-10-07T22:11:48.879Z,61.36
2022-10-07T22:14:15.642Z,61.43
2022-10-07T22:16:42.891Z,61.40
2022-10-07T22:19:10.812Z,61.55
2022-10-07T22:21:40.393Z,61.41
2022-10-07T22:24:08.624Z,61.44
2022-10-07T22:26:47.018Z,61.43
2022-10-07T22:29:16.218Z,61.77
2022-10-07T22:31:43.337Z,61.64
2022-10-07T22:34:30.329Z,61.97
2022-10-07T22:36:58.277Z,62.12
2022-10-07T22:39:26.009Z,62.05
2022-10-07T22:41:53.489Z,61.95
2022-10-07T22:44:20.485Z,62.03
2022-10-07T22:46:48.679Z,61.61
2022-10-07T22:49:15.622Z,61.75
2022-10-07T22:51:43.203Z,61.63
2022-10-07T22:54:12.788Z,61.50
2022-10-07T22:56:40.425Z,61.26
2022-10-07T22:59:08.784Z,61.26
2022-10-07T23:01:35.966Z,61.44
2022-10-07T23:04:04.959Z,61.29
2022-10-07T23:06:33.604Z,61.11
2022-10-07T23:09:00.828Z,61.22
2022-10-07T23:11:29.581Z,61.30
2022-10-07T23:13:56.396Z,61.55
2022-10-07T23:16:26.116Z,61.90
2022-10-07T23:18:53.762Z,61.83
2022-10-07T23:21:25.863Z,62.09
2022-10-07T23:24:02.863Z,62.16
2022-10-07T23:26:33.709Z,62.15
2022-10-07T23:29:01.433Z,61.85
2022-10-07T23:31:30.477Z,61.95
2022-10-07T23:33:58.562Z,61.79
2022-10-07T23:36:26.629Z,61.45
2022-10-07T23:38:53.862Z,61.61
2022-10-07T23:41:23.639Z,61.27
2022-10-07T23:43:51.751Z,61.54
2022-10-07T23:46:20.091Z,61.60
2022-10-07T23:48:47.476Z,61.57
2022-10-07T23:51:17.700Z,61.50
2022-10-07T23:53:44.954Z,61.65
2022-10-07T23:56:12.144Z,61.60
2022-10-07T23:58:39.626Z,61.57
